Hlavní strana
METAR-TAF:

METAR-TAF

Letiště :

Porto Alegre, Rio Grande do Sul, Brazílie

zeměpisná šířka: 30-00S, zeměpisná délka: 051-11W, výška: 3 m

Aktuální stav počasí

Zpráva byla vytvořena před 57 minutami, v 14:00 UTC
Severní vítr 6 kt, proměnlivý mezi západoseverozápadním a východoseverovýchodním
Teplota 28°C
Vlhkost vzduchu 74%
Tlak 1014 hPa
Viditelnost 10 km a více
Žádná oblačnost pod 1500 m, nevyskytují se cumulonimby.

METAR: SBPA 221400Z 35006KT 300V060 CAVOK 28/23 Q1014

Čas: 11:57 (14:57 UTC)

Předpověď počasí

Zpráva byla vytvořena před 5 hodinami a 12 minutami, v 09:45 UTC
Předpověď platná od 22 v 12 UTC do 23 v 12 UTC
Východní vítr 8 kt
Viditelnost 10 km a více
Žádná oblačnost pod 1500 m, nevyskytují se cumulonimby.

TAF: SBPA 220945Z 2212/2312 09008KT CAVOK TX34/2218Z TN20/2308Z RMK PE B

Stav a předpovědi počasí z více než 4 000 letišť (zprávy METAR a TAF).

Červené a žluté tečky na mapě představují dostupné meteorologické stanice.

Když kurzor umístíte na tečku, zobrazí se název stanice.

Pak kliknutím zobrazíte stav a předpověď počasí.

Chcete-li změnit mapu, kliknutím na zelené tlačítko se znaménkem +mapu přiblížíte, kliknutím na zelené tlačítko se znaménkem – mapu oddálíte a kliknutím na zelené šipky přejdete na sousední mapy.


METAR-TAF: